createdAt,value
2018-03-28T00:00:12.454Z,2.70
2018-03-28T00:02:39.465Z,2.70
2018-03-28T00:05:08.543Z,2.70
2018-03-28T00:07:35.573Z,2.70
2018-03-28T00:10:02.615Z,2.70
2018-03-28T00:12:29.654Z,2.70
2018-03-28T00:14:56.734Z,2.70
2018-03-28T00:17:23.737Z,2.70
2018-03-28T00:19:50.750Z,2.60
2018-03-28T00:22:18.706Z,2.70
2018-03-28T00:24:45.825Z,2.70
2018-03-28T00:27:12.853Z,2.70
2018-03-28T00:29:39.875Z,2.60
2018-03-28T00:32:07.653Z,2.50
2018-03-28T00:34:34.717Z,2.50
2018-03-28T00:37:01.729Z,2.60
2018-03-28T00:39:29.506Z,2.70
2018-03-28T00:41:56.517Z,2.70
2018-03-28T00:44:23.625Z,2.70
2018-03-28T00:46:52.318Z,2.50
2018-03-28T00:49:19.356Z,2.40
2018-03-28T00:51:46.382Z,2.50
2018-03-28T00:54:14.194Z,2.50
2018-03-28T00:56:41.201Z,2.50
2018-03-28T00:59:08.194Z,2.60
2018-03-28T01:01:35.265Z,2.70
2018-03-28T01:04:02.405Z,2.80
2018-03-28T01:06:29.469Z,2.80
2018-03-28T01:08:57.379Z,2.70
2018-03-28T01:11:24.390Z,2.70
2018-03-28T01:13:53.254Z,2.70
2018-03-28T01:16:21.045Z,2.80
2018-03-28T01:18:48.805Z,2.80
2018-03-28T01:21:15.884Z,2.80
2018-03-28T01:23:43.006Z,2.80
2018-03-28T01:26:10.808Z,2.80
2018-03-28T01:28:37.880Z,2.80
2018-03-28T01:31:04.925Z,2.70
2018-03-28T01:33:31.970Z,2.70
2018-03-28T01:35:59.017Z,2.60
2018-03-28T01:38:26.086Z,2.70
2018-03-28T01:40:53.138Z,2.80
2018-03-28T01:43:20.178Z,2.70
2018-03-28T01:45:47.178Z,2.70
2018-03-28T01:48:14.160Z,2.70
2018-03-28T01:50:41.229Z,2.80
2018-03-28T01:53:08.343Z,2.80
2018-03-28T01:55:35.367Z,2.80
2018-03-28T01:58:02.418Z,2.90
2018-03-28T02:00:30.152Z,2.90
2018-03-28T02:02:57.978Z,2.90
2018-03-28T02:05:24.981Z,2.90
2018-03-28T02:07:52.397Z,2.80
2018-03-28T02:10:19.446Z,2.70
2018-03-28T02:12:46.462Z,2.60
2018-03-28T02:15:13.497Z,2.70
2018-03-28T02:17:40.616Z,2.70
2018-03-28T02:20:07.683Z,2.80
2018-03-28T02:22:34.797Z,2.80
2018-03-28T02:25:02.678Z,3.00
2018-03-28T02:27:29.667Z,3.00
2018-03-28T02:29:56.706Z,3.10
2018-03-28T02:32:23.774Z,3.10
2018-03-28T02:34:50.797Z,2.90
2018-03-28T02:37:17.818Z,2.80
2018-03-28T02:39:44.900Z,2.90
2018-03-28T02:42:11.973Z,3.10
2018-03-28T02:44:39.099Z,3.10
2018-03-28T02:47:06.127Z,3.10
2018-03-28T02:49:33.176Z,3.20
2018-03-28T02:52:00.226Z,3.30
2018-03-28T02:54:27.316Z,3.30
2018-03-28T02:56:54.351Z,3.30
2018-03-28T02:59:21.358Z,3.40
2018-03-28T03:01:48.346Z,3.40
2018-03-28T03:04:15.490Z,3.50
2018-03-28T03:06:42.505Z,3.40
2018-03-28T03:09:09.574Z,3.50
2018-03-28T03:11:36.694Z,3.50
2018-03-28T03:14:03.837Z,3.60
2018-03-28T03:16:30.880Z,3.60
2018-03-28T03:18:57.871Z,3.60
2018-03-28T03:21:24.911Z,3.60
2018-03-28T03:23:52.022Z,3.50
2018-03-28T03:26:19.038Z,3.50
2018-03-28T03:28:46.055Z,3.50
2018-03-28T03:31:13.074Z,3.40
2018-03-28T03:33:40.133Z,3.50
2018-03-28T03:36:07.892Z,3.70
2018-03-28T03:38:34.893Z,3.70
2018-03-28T03:41:01.949Z,3.80
2018-03-28T03:43:29.789Z,3.80
2018-03-28T03:45:56.789Z,3.80
2018-03-28T03:48:23.799Z,3.70
2018-03-28T03:50:50.838Z,3.70
2018-03-28T03:53:21.533Z,3.70
2018-03-28T03:55:48.546Z,3.70
2018-03-28T03:58:15.614Z,3.70
2018-03-28T04:00:43.357Z,3.80
2018-03-28T04:03:11.202Z,3.80
2018-03-28T04:05:38.933Z,3.80
2018-03-28T04:08:05.938Z,3.80
2018-03-28T04:10:32.966Z,3.70
2018-03-28T04:12:59.989Z,3.80
2018-03-28T04:15:27.863Z,3.80
2018-03-28T04:17:55.761Z,3.70
2018-03-28T04:20:22.762Z,3.70
2018-03-28T04:22:50.557Z,3.80
2018-03-28T04:25:17.690Z,3.80
2018-03-28T04:27:44.727Z,3.80
2018-03-28T04:30:11.897Z,3.80
2018-03-28T04:32:39.002Z,3.80
2018-03-28T04:35:06.098Z,3.80
2018-03-28T04:37:33.916Z,3.90
2018-03-28T04:40:00.912Z,3.90
2018-03-28T04:43:05.131Z,3.90
2018-03-28T04:51:35.983Z,4.00
2018-03-28T05:01:38.480Z,4.10
2018-03-28T05:04:10.338Z,3.90
2018-03-28T05:06:38.209Z,3.80
2018-03-28T05:09:05.354Z,3.80
2018-03-28T05:11:32.461Z,3.80
2018-03-28T05:14:00.321Z,3.90
2018-03-28T05:16:27.338Z,3.80
2018-03-28T05:18:56.329Z,3.90
2018-03-28T05:21:25.305Z,3.90
2018-03-28T05:23:53.158Z,4.00
2018-03-28T05:26:22.048Z,4.10
2018-03-28T05:28:49.319Z,4.10
2018-03-28T05:31:16.395Z,4.10
2018-03-28T05:33:44.518Z,4.00
2018-03-28T05:36:11.724Z,4.00
2018-03-28T05:38:39.622Z,4.00
2018-03-28T05:41:09.682Z,4.00
2018-03-28T05:51:44.939Z,4.00
2018-03-28T05:57:14.539Z,4.40
2018-03-28T05:59:52.700Z,4.60
2018-03-28T06:02:22.107Z,4.70
2018-03-28T06:04:56.078Z,4.70
2018-03-28T06:07:36.775Z,4.80
2018-03-28T06:10:18.237Z,4.80
2018-03-28T06:12:58.853Z,4.60
2018-03-28T06:15:55.372Z,4.60
2018-03-28T06:18:30.007Z,4.60
2018-03-28T06:21:12.987Z,4.60
2018-03-28T06:23:46.841Z,4.60
2018-03-28T06:26:13.900Z,4.60
2018-03-28T06:28:41.114Z,4.60
2018-03-28T06:31:08.342Z,4.60
2018-03-28T06:33:35.399Z,4.70
2018-03-28T06:36:03.230Z,4.70
2018-03-28T06:38:30.438Z,4.70
2018-03-28T06:40:57.466Z,4.60
2018-03-28T06:43:24.518Z,4.60
2018-03-28T06:45:51.550Z,4.60
2018-03-28T06:48:19.310Z,4.80
2018-03-28T06:50:46.349Z,4.80
2018-03-28T06:53:14.362Z,4.90
2018-03-28T06:55:41.430Z,4.90
2018-03-28T06:58:08.457Z,4.70
2018-03-28T07:00:35.501Z,4.80
2018-03-28T07:03:04.329Z,4.90
2018-03-28T07:05:31.557Z,4.90
2018-03-28T07:07:58.615Z,4.90
2018-03-28T07:10:25.817Z,4.80
2018-03-28T07:12:52.981Z,4.80
2018-03-28T07:15:56.316Z,4.70
2018-03-28T07:18:25.107Z,5.20
2018-03-28T07:20:55.020Z,5.20
2018-03-28T07:23:22.687Z,5.30
2018-03-28T07:25:51.422Z,5.30
2018-03-28T07:31:17.708Z,5.40
2018-03-28T07:33:46.627Z,5.40
2018-03-28T07:36:13.767Z,5.30
2018-03-28T07:38:42.175Z,5.40
2018-03-28T07:41:10.592Z,5.50
2018-03-28T07:43:43.368Z,5.90
2018-03-28T07:46:10.422Z,5.90
2018-03-28T07:48:37.444Z,6.00
2018-03-28T07:51:04.641Z,6.20
2018-03-28T07:53:31.652Z,6.30
2018-03-28T07:55:58.662Z,6.50
2018-03-28T07:58:25.693Z,6.70
2018-03-28T08:00:52.716Z,6.80
2018-03-28T08:03:19.747Z,6.90
2018-03-28T08:05:46.790Z,7.10
2018-03-28T08:08:14.538Z,7.30
2018-03-28T08:10:41.552Z,7.30
2018-03-28T08:13:08.606Z,7.20
2018-03-28T08:15:35.627Z,7.10
2018-03-28T08:18:02.654Z,7.10
2018-03-28T08:20:29.705Z,7.20
2018-03-28T08:22:56.721Z,7.20
2018-03-28T08:25:23.743Z,7.40
2018-03-28T08:27:50.778Z,7.50
2018-03-28T08:30:17.822Z,7.40
2018-03-28T08:32:44.832Z,7.40
2018-03-28T08:35:11.865Z,7.20
2018-03-28T08:37:38.893Z,7.30
2018-03-28T08:40:06.693Z,7.30
2018-03-28T08:42:33.685Z,7.30
2018-03-28T08:45:00.719Z,7.40
2018-03-28T08:47:27.756Z,7.30
2018-03-28T08:49:54.806Z,7.30
2018-03-28T08:52:21.834Z,7.30
2018-03-28T08:54:48.862Z,7.40
2018-03-28T08:57:15.905Z,7.60
2018-03-28T08:59:42.909Z,7.60
2018-03-28T09:02:10.674Z,7.90
2018-03-28T09:04:37.729Z,7.90
2018-03-28T09:07:04.779Z,8.10
2018-03-28T09:09:31.786Z,8.30
2018-03-28T09:11:59.049Z,8.50
2018-03-28T09:14:26.162Z,8.60
2018-03-28T09:16:53.906Z,9.00
2018-03-28T09:19:20.964Z,9.00
2018-03-28T09:21:48.153Z,9.30
2018-03-28T09:24:15.978Z,9.70
2018-03-28T09:26:43.199Z,9.70
2018-03-28T09:29:10.238Z,9.80
2018-03-28T09:31:37.510Z,9.80
2018-03-28T09:34:05.465Z,9.90
2018-03-28T09:36:32.548Z,9.80
2018-03-28T09:39:00.478Z,10.20
2018-03-28T09:41:27.601Z,10.10
2018-03-28T09:43:54.921Z,10.20
2018-03-28T09:46:21.986Z,10.30
2018-03-28T09:48:48.980Z,10.70
2018-03-28T09:51:16.055Z,10.80
2018-03-28T09:53:43.811Z,10.90
2018-03-28T09:56:10.861Z,10.90
2018-03-28T09:58:37.969Z,11.10
2018-03-28T10:01:08.061Z,10.90
2018-03-28T10:03:41.024Z,10.80
2018-03-28T10:06:08.007Z,10.90
2018-03-28T10:08:35.020Z,11.10
2018-03-28T10:11:02.114Z,11.20
2018-03-28T10:13:29.120Z,11.30
2018-03-28T10:15:56.132Z,11.40
2018-03-28T10:18:23.154Z,11.60
2018-03-28T10:20:50.166Z,11.60
2018-03-28T10:23:17.942Z,11.70
2018-03-28T10:25:44.978Z,11.70
2018-03-28T10:28:12.711Z,11.40
2018-03-28T10:30:39.736Z,11.40
2018-03-28T10:33:07.090Z,11.30
2018-03-28T10:35:34.157Z,11.20
2018-03-28T10:38:01.153Z,11.30
2018-03-28T10:40:28.244Z,11.60
2018-03-28T10:42:55.234Z,12.00
2018-03-28T10:45:22.473Z,12.50
2018-03-28T10:47:50.301Z,12.30
2018-03-28T10:50:17.626Z,12.20
2018-03-28T10:52:44.790Z,12.10
2018-03-28T10:55:12.559Z,12.60
2018-03-28T10:57:39.614Z,12.60
2018-03-28T11:00:06.666Z,12.60
2018-03-28T11:02:33.857Z,13.00
2018-03-28T11:05:00.899Z,13.10
2018-03-28T11:07:27.904Z,13.10
2018-03-28T11:09:55.248Z,13.30
2018-03-28T11:12:22.361Z,13.50
2018-03-28T11:14:49.420Z,13.80
2018-03-28T11:17:16.434Z,13.90
2018-03-28T11:19:43.487Z,13.50
2018-03-28T11:22:10.498Z,13.50
2018-03-28T11:24:37.534Z,13.80
2018-03-28T11:27:04.557Z,14.10
2018-03-28T11:29:31.565Z,14.30
2018-03-28T11:31:58.590Z,14.80
2018-03-28T11:34:25.606Z,14.30
2018-03-28T11:36:52.958Z,14.30
2018-03-28T11:39:21.098Z,14.90
2018-03-28T11:41:48.910Z,15.30
2018-03-28T11:44:16.663Z,15.10
2018-03-28T11:46:43.681Z,15.10
2018-03-28T11:49:10.707Z,15.00
2018-03-28T11:51:37.697Z,15.60
2018-03-28T11:54:04.798Z,17.00
2018-03-28T11:56:32.138Z,16.80
2018-03-28T11:58:59.490Z,16.20
2018-03-28T12:01:26.598Z,15.60
2018-03-28T12:03:53.733Z,15.40
2018-03-28T12:06:20.865Z,15.00
2018-03-28T12:08:47.893Z,14.80
2018-03-28T12:11:14.921Z,14.60
2018-03-28T12:13:42.674Z,14.80
2018-03-28T12:16:09.914Z,14.80
2018-03-28T12:18:36.977Z,17.20
2018-03-28T12:21:04.742Z,20.90
2018-03-28T12:23:31.769Z,20.80
2018-03-28T12:25:58.817Z,22.00
2018-03-28T12:28:26.828Z,22.90
2018-03-28T12:30:53.960Z,24.00
2018-03-28T12:33:21.030Z,24.50
2018-03-28T12:35:48.058Z,24.80
2018-03-28T12:38:15.050Z,25.40
2018-03-28T12:40:42.242Z,25.90
2018-03-28T12:43:09.257Z,25.70
2018-03-28T12:45:36.270Z,26.00
2018-03-28T12:48:03.326Z,26.10
2018-03-28T12:50:30.477Z,26.80
2018-03-28T12:52:57.509Z,26.90
2018-03-28T12:55:24.720Z,27.70
2018-03-28T12:57:52.374Z,28.20
2018-03-28T13:00:19.361Z,28.10
2018-03-28T13:02:47.130Z,27.60
2018-03-28T13:05:14.180Z,27.60
2018-03-28T13:07:41.181Z,27.10
2018-03-28T13:10:08.215Z,27.00
2018-03-28T13:12:35.256Z,28.10
2018-03-28T13:15:02.283Z,28.50
2018-03-28T13:17:29.327Z,26.80
2018-03-28T13:19:57.088Z,24.70
2018-03-28T13:22:24.041Z,24.60
2018-03-28T13:24:51.068Z,23.70
2018-03-28T13:27:18.830Z,23.20
2018-03-28T13:29:46.579Z,23.40
2018-03-28T13:32:14.345Z,22.10
2018-03-28T13:34:42.117Z,20.80
2018-03-28T13:37:09.126Z,20.70
2018-03-28T13:39:36.256Z,19.40
2018-03-28T13:42:03.270Z,19.30
2018-03-28T13:44:30.319Z,19.40
2018-03-28T13:46:57.358Z,19.40
2018-03-28T13:49:24.365Z,19.10
2018-03-28T13:51:51.416Z,18.70
2018-03-28T13:54:18.440Z,18.30
2018-03-28T13:56:45.476Z,17.50
2018-03-28T13:59:12.542Z,17.40
2018-03-28T14:01:39.561Z,17.40
2018-03-28T14:04:06.582Z,17.10
2018-03-28T14:06:33.623Z,16.90
2018-03-28T14:09:01.374Z,17.20
2018-03-28T14:11:28.355Z,17.10
2018-03-28T14:13:55.401Z,17.40
2018-03-28T14:16:22.833Z,17.30
2018-03-28T14:18:50.398Z,17.40
2018-03-28T14:21:18.186Z,16.90
2018-03-28T14:23:45.949Z,16.60
2018-03-28T14:26:12.963Z,16.60
2018-03-28T14:28:40.750Z,16.10
2018-03-28T14:31:07.758Z,16.00
2018-03-28T14:33:34.791Z,15.60
2018-03-28T14:36:01.815Z,15.40
2018-03-28T14:38:28.817Z,15.30
2018-03-28T14:40:55.850Z,15.30
2018-03-28T14:43:22.885Z,15.20
2018-03-28T14:45:49.916Z,15.10
2018-03-28T14:48:16.954Z,14.90
2018-03-28T14:50:43.974Z,14.90
2018-03-28T14:53:11.709Z,14.90
2018-03-28T14:55:38.752Z,14.90
2018-03-28T14:58:05.820Z,14.80
2018-03-28T15:00:32.849Z,14.70
2018-03-28T15:02:59.885Z,14.70
2018-03-28T15:05:26.898Z,14.70
2018-03-28T15:07:53.945Z,14.60
2018-03-28T15:10:21.698Z,14.70
2018-03-28T15:12:48.737Z,14.70
2018-03-28T15:15:15.814Z,14.70
2018-03-28T15:17:42.877Z,14.70
2018-03-28T15:20:09.918Z,14.40
2018-03-28T15:22:36.993Z,14.20
2018-03-28T15:25:04.066Z,14.10
2018-03-28T15:27:31.044Z,14.10
2018-03-28T15:29:58.098Z,14.10
2018-03-28T15:32:25.140Z,14.20
2018-03-28T15:34:52.329Z,14.10
2018-03-28T15:37:19.325Z,14.20
2018-03-28T15:39:46.341Z,14.20
2018-03-28T15:42:14.142Z,13.80
2018-03-28T15:44:41.203Z,13.80
2018-03-28T15:47:08.213Z,13.70
2018-03-28T15:49:35.981Z,13.40
2018-03-28T15:52:03.003Z,13.30
2018-03-28T15:54:30.026Z,13.30
2018-03-28T15:56:57.246Z,13.20
2018-03-28T15:59:25.056Z,13.10
2018-03-28T16:01:52.129Z,13.10
2018-03-28T16:04:19.161Z,13.00
2018-03-28T16:06:46.196Z,12.90
2018-03-28T16:09:13.272Z,12.90
2018-03-28T16:11:41.491Z,12.80
2018-03-28T16:14:09.477Z,12.70
2018-03-28T16:16:36.476Z,12.70
2018-03-28T16:19:03.782Z,12.70
2018-03-28T16:21:31.022Z,12.80
2018-03-28T16:23:58.108Z,12.80
2018-03-28T16:26:26.205Z,12.90
2018-03-28T16:28:53.577Z,12.90
2018-03-28T16:31:20.797Z,12.90
2018-03-28T16:33:47.849Z,12.90
2018-03-28T16:36:15.087Z,12.90
2018-03-28T16:38:42.246Z,12.80
2018-03-28T16:41:10.075Z,12.70
2018-03-28T16:43:37.199Z,12.70
2018-03-28T16:46:04.429Z,12.70
2018-03-28T16:48:31.556Z,12.60
2018-03-28T16:50:59.328Z,12.50
2018-03-28T16:53:26.620Z,12.50
2018-03-28T16:55:53.693Z,12.50
2018-03-28T16:58:21.465Z,12.50
2018-03-28T17:00:48.622Z,12.50
2018-03-28T17:03:15.895Z,12.40
2018-03-28T17:05:43.040Z,12.20
2018-03-28T17:08:10.125Z,12.20
2018-03-28T17:10:37.276Z,12.10
2018-03-28T17:13:04.372Z,12.10
2018-03-28T17:15:31.499Z,12.00
2018-03-28T17:17:58.556Z,12.00
2018-03-28T17:20:26.598Z,11.80
2018-03-28T17:22:53.626Z,11.80
2018-03-28T17:25:21.389Z,11.60
2018-03-28T17:27:48.445Z,11.60
2018-03-28T17:30:15.465Z,11.60
2018-03-28T17:32:43.404Z,11.50
2018-03-28T17:35:11.212Z,11.40
2018-03-28T17:37:38.714Z,11.40
2018-03-28T17:40:05.778Z,11.40
2018-03-28T17:42:33.562Z,11.30
2018-03-28T17:45:01.321Z,11.30
2018-03-28T17:47:29.149Z,11.30
2018-03-28T17:49:56.152Z,11.20
2018-03-28T17:52:23.168Z,11.20
2018-03-28T17:54:50.221Z,11.20
2018-03-28T17:57:18.005Z,11.10
2018-03-28T17:59:45.982Z,11.10
2018-03-28T18:02:13.237Z,11.10
2018-03-28T18:04:41.027Z,11.00
2018-03-28T18:07:08.022Z,11.00
2018-03-28T18:09:35.288Z,11.00
2018-03-28T18:12:02.390Z,10.90
2018-03-28T18:14:29.469Z,10.90
2018-03-28T18:16:57.225Z,10.90
2018-03-28T18:19:24.243Z,10.90
2018-03-28T18:21:51.514Z,10.80
2018-03-28T18:24:18.866Z,10.80
2018-03-28T18:26:45.971Z,10.80
2018-03-28T18:29:13.110Z,10.70
2018-03-28T18:31:40.165Z,10.70
2018-03-28T18:34:07.183Z,10.60
2018-03-28T18:36:34.979Z,10.50
2018-03-28T18:39:02.074Z,10.50
2018-03-28T18:41:29.318Z,10.40
2018-03-28T18:43:56.403Z,10.40
2018-03-28T18:46:23.618Z,10.30
2018-03-28T18:48:50.793Z,10.30
2018-03-28T18:51:18.021Z,10.20
2018-03-28T18:53:45.361Z,10.20
2018-03-28T18:56:12.358Z,10.20
2018-03-28T18:58:39.365Z,10.20
2018-03-28T19:01:06.591Z,10.20
2018-03-28T19:03:34.337Z,10.10
2018-03-28T19:06:02.378Z,10.10
2018-03-28T19:08:29.409Z,10.10
2018-03-28T19:10:56.443Z,10.00
2018-03-28T19:13:23.509Z,10.00
2018-03-28T19:15:50.786Z,9.90
2018-03-28T19:18:17.838Z,9.90
2018-03-28T19:20:45.645Z,9.80
2018-03-28T19:23:12.646Z,9.80
2018-03-28T19:25:39.654Z,9.70
2018-03-28T19:28:07.399Z,9.70
2018-03-28T19:30:34.425Z,9.70
2018-03-28T19:33:02.206Z,9.60
2018-03-28T19:35:29.243Z,9.60
2018-03-28T19:37:57.126Z,9.60
2018-03-28T19:40:24.545Z,9.60
2018-03-28T19:42:51.641Z,9.50
2018-03-28T19:45:18.697Z,9.50
2018-03-28T19:47:45.735Z,9.40
2018-03-28T19:50:12.773Z,9.40
2018-03-28T19:52:39.810Z,9.40
2018-03-28T19:55:09.322Z,9.40
2018-03-28T19:57:37.354Z,9.40
2018-03-28T20:00:04.846Z,9.40
2018-03-28T20:02:31.955Z,9.40
2018-03-28T20:04:59.034Z,9.40
2018-03-28T20:07:27.094Z,9.40
2018-03-28T20:09:54.207Z,9.30
2018-03-28T20:12:21.275Z,9.40
2018-03-28T20:14:48.353Z,9.30
2018-03-28T20:17:16.137Z,9.40
2018-03-28T20:19:43.867Z,9.30
2018-03-28T20:22:11.523Z,9.30
2018-03-28T20:24:39.608Z,9.30
2018-03-28T20:27:06.637Z,9.30
2018-03-28T20:29:33.797Z,9.30
2018-03-28T20:32:00.964Z,9.30
2018-03-28T20:34:28.149Z,9.20
2018-03-28T20:36:55.190Z,9.30
2018-03-28T20:39:22.241Z,9.30
2018-03-28T20:41:49.469Z,9.20
2018-03-28T20:44:17.301Z,9.20
2018-03-28T20:46:44.315Z,9.20
2018-03-28T20:49:11.332Z,9.20
2018-03-28T20:51:38.794Z,9.20
2018-03-28T20:54:05.998Z,9.20
2018-03-28T20:56:33.013Z,9.20
2018-03-28T20:59:00.051Z,9.20
2018-03-28T21:01:27.141Z,9.20
2018-03-28T21:03:54.257Z,9.20
2018-03-28T21:06:21.334Z,9.20
2018-03-28T21:08:48.333Z,9.20
2018-03-28T21:11:15.426Z,9.20
2018-03-28T21:13:42.913Z,9.20
2018-03-28T21:16:10.233Z,9.20
2018-03-28T21:18:37.273Z,9.20
2018-03-28T21:21:04.265Z,9.20
2018-03-28T21:23:32.018Z,9.20
2018-03-28T21:25:59.047Z,9.20
2018-03-28T21:28:26.061Z,9.10
2018-03-28T21:30:53.094Z,9.10
2018-03-28T21:33:20.133Z,9.10
2018-03-28T21:35:47.150Z,9.10
2018-03-28T21:38:14.148Z,9.10
2018-03-28T21:40:41.182Z,9.10
2018-03-28T21:43:08.186Z,9.10
2018-03-28T21:45:35.946Z,9.10
2018-03-28T21:48:03.063Z,9.10
2018-03-28T21:50:30.093Z,9.20
2018-03-28T21:52:57.121Z,9.20
2018-03-28T21:55:24.187Z,9.10
2018-03-28T21:57:51.184Z,9.10
2018-03-28T22:00:18.991Z,9.10
2018-03-28T22:02:46.014Z,9.00
2018-03-28T22:05:13.777Z,9.00
2018-03-28T22:07:41.550Z,9.00
2018-03-28T22:10:08.865Z,9.00
2018-03-28T22:12:35.930Z,9.00
2018-03-28T22:15:03.023Z,9.00
2018-03-28T22:17:30.069Z,9.00
2018-03-28T22:19:57.073Z,9.00
2018-03-28T22:22:24.114Z,8.90
2018-03-28T22:24:51.345Z,8.90
2018-03-28T22:27:18.513Z,8.80
2018-03-28T22:29:45.541Z,8.80
2018-03-28T22:32:12.605Z,8.90
2018-03-28T22:34:40.402Z,8.90
2018-03-28T22:37:08.149Z,8.90
2018-03-28T22:39:35.177Z,8.90
2018-03-28T22:42:02.222Z,8.90
2018-03-28T22:44:29.234Z,8.90
2018-03-28T22:46:56.245Z,8.90
2018-03-28T22:49:24.014Z,8.90
2018-03-28T22:51:51.795Z,8.80
2018-03-28T22:54:18.867Z,8.80
2018-03-28T22:56:45.893Z,8.80
2018-03-28T22:59:13.625Z,8.80
2018-03-28T23:01:40.647Z,8.80
2018-03-28T23:04:07.682Z,8.90
2018-03-28T23:06:34.661Z,8.90
2018-03-28T23:09:01.720Z,8.90
2018-03-28T23:11:29.470Z,8.80
2018-03-28T23:13:57.240Z,8.80
2018-03-28T23:16:24.287Z,8.80
2018-03-28T23:18:51.282Z,8.80
2018-03-28T23:21:18.284Z,8.80
2018-03-28T23:23:46.063Z,8.80
2018-03-28T23:26:13.065Z,8.80
2018-03-28T23:28:40.069Z,8.80
2018-03-28T23:31:07.081Z,8.70
2018-03-28T23:33:34.108Z,8.70
2018-03-28T23:36:01.140Z,8.70
2018-03-28T23:38:28.124Z,8.70
2018-03-28T23:40:55.144Z,8.80
2018-03-28T23:43:22.183Z,8.80
2018-03-28T23:45:49.221Z,8.70
2018-03-28T23:48:16.232Z,8.80
2018-03-28T23:50:44.020Z,8.70
2018-03-28T23:53:11.041Z,8.70
2018-03-28T23:55:38.052Z,8.70
2018-03-28T23:58:05.085Z,8.70
